CheckWX is a tool to help pilots better visualize weather data.  It is not intended as a substitute for an official pre-flight weather briefing.

03:50:48 UTC

KDSM METAR
Des Moines International Airport
Des Moines, Iowa, USA
Current

57 mins ago

KDSM 270254Z 09006KT 10SM BKN039 BKN046 BKN200 22/17 A2999 RMK AO2 SLP150 T02220167 53006
Observed
May-27 @ 02:54 UTC
Wind
  • 090° at 6 KTS
Visibility
10 SM
Flight Rules
VFR
Cloud Levels
  • Broken at 3,900' AGL
  • Broken at 4,600' AGL
  • Broken at 20,000' AGL
Temperature
22°C / 72°F
Dewpoint
17°C / 63°F
Humidity
73%
Altimeter
29.99" Hg
Pressure
1015.62 hPa
Previous

2 hours ago

KDSM 270154Z 09006KT 10SM SCT044 OVC200 22/17 A2997 RMK AO2 SLP146 T02220167
Observed
May-27 @ 01:54 UTC
Wind
  • 090° at 6 KTS
Visibility
10 SM
Flight Rules
VFR
Cloud Levels
  • Scattered at 4,400' AGL
  • Overcast at 20,000' AGL
Temperature
22°C / 72°F
Dewpoint
17°C / 63°F
Humidity
73%
Altimeter
29.97" Hg
Pressure
1014.92 hPa
Previous

3 hours ago

KDSM 270054Z 09006KT 10SM FEW040 SCT200 OVC250 23/17 A2999 RMK AO2 SLP150 T02330167
Observed
May-27 @ 00:54 UTC
Wind
  • 090° at 6 KTS
Visibility
10 SM
Flight Rules
VFR
Cloud Levels
  • Few at 4,000' AGL
  • Scattered at 20,000' AGL
  • Overcast at 25,000' AGL
Temperature
23°C / 73°F
Dewpoint
17°C / 63°F
Humidity
69%
Altimeter
29.99" Hg
Pressure
1015.62 hPa